Airfield :
LOGIN :

Register | Disclaimer

   EN    FR    IT 

 










Legend :    VFR   Marginal VFR   IFR   Intensive IFR   Very Intensive IFR
Visi :
Ceiling :
>= 8 km
>= 3000ft
5 to 8 km
1000 to 3000 ft
1500m to 5 km
500 to 1000 ft
800 to 1500m
200 to 500 ft
< 800m
< 200 ft
Symbols :   Thunderstorms  Fog  Heavy snow  Heavy precipitations  Wind > 20 kt
SIGMETs :     Misc.  Thunderstorms  Icing  Turbulence  Mountain Waves  Volcanic Ashes







- Airport Elevation : 359 ft
- IATA code : BVA
- Download approach charts


LFOB - Beauvais

CURRENT METAR :
  • 181830Z AUTO 23005KT 9999 SCT038 BKN220 09/04 Q1017 NOSIG

EXPIRED METARs :
  • 181800Z AUTO VRB02KT 9999 FEW041 10/04 Q1016 NOSIG
  • 181730Z AUTO 21005KT CAVOK 10/04 Q1016 NOSIG
  • 181700Z AUTO 22007KT CAVOK 12/05 Q1016 NOSIG
  • 181630Z AUTO 21010KT CAVOK 13/04 Q1015 NOSIG
  • 181600Z AUTO 20011KT CAVOK 14/04 Q1015 NOSIG

TAF TAF LFOB
Valid from the 18 at 18:00 until the 19 at 18:00 UTC


181700Z 1818/1918 24008KT 9999 BKN025
TEMPO 1821/1902 4000 -RA BKN006 BKN020
BECMG 1902/1905 4000 BR BKN005
PROB30 1905/1908 0500 FG VV///
BECMG 1909/1912 9999 NSW BKN020
ATIS : +33 3 44 11 49 28
No reported NOTAMs for that airfield.



MET'MAP, your aeronautical weather chart ! - Copyright ORBIFLY December 2007 - Disclaimer

ORBIFLY MET'MAP TEAM :

Programming & Development : Alexandra Zaïnal
Concept & Development : Baudouin d'Aumeries
Co-Development & Prog : Marc-Olivier Méhu
Technical & hardware support : Manuel Goepfert

Contact : metmap@orbifly.com




SOURCES & CREDITS :

   NOAA